Flight Track Log - Related Links

Times and Time Zones

All times are in EDT time to prevent confusion due to time zone crossing. See the AFR1743 flight status page for this flight to view local times or setup timezone preferences in your user account.

Time Position Orientation Groundspeed Altitude Reporting Facility
EDT Latitude Longitude Course Direction KTS MPH feet Rate Location/Type
Thu 07:12:00 AM 46.7868 5.4451 320° Northwest  Level Estimated
Thu 07:13:00 AM 46.8259 5.3971 320° Northwest  Level Estimated
Thu 07:14:00 AM 46.8649 5.3491 320° Northwest  Level Estimated
Thu 07:15:00 AM 46.9039 5.3011 320° Northwest  Level Estimated
Thu 07:16:00 AM 46.9429 5.2529 320° Northwest  Level Estimated
Thu 07:17:00 AM 46.9819 5.2047 320° Northwest  Level Estimated
Thu 07:18:00 AM 47.0208 5.1564 320° Northwest  Level Estimated
Thu 07:19:00 AM 47.0597 5.1080 320° Northwest  Level Estimated
Thu 07:20:00 AM 47.0987 5.0596 320° Northwest  Level Estimated
Thu 07:21:00 AM 47.1376 5.0111 320° Northwest  Level Estimated
Thu 07:22:00 AM 47.1764 4.9625 320° Northwest  Level Estimated
Thu 07:23:00 AM 47.2153 4.9139 320° Northwest  Level Estimated
Thu 07:24:00 AM 47.2541 4.8652 320° Northwest  Level Estimated
Thu 07:25:00 AM 47.2929 4.8164 320° Northwest  Level Estimated
Thu 07:26:00 AM 47.3317 4.7675 320° Northwest  Level Estimated
Thu 07:27:00 AM 47.3704 4.7186 319° Northwest  Level Estimated
Thu 07:28:00 AM 47.4092 4.6696 319° Northwest  Level Estimated
Thu 07:29:00 AM 47.4479 4.6206 319° Northwest  Level Estimated
Thu 07:30:00 AM 47.4866 4.5714 319° Northwest  Level Estimated
Thu 07:31:00 AM 47.5253 4.5222 319° Northwest  Level Estimated
Thu 07:32:00 AM 47.5639 4.4729 319° Northwest  Level Estimated
Thu 07:33:00 AM 47.6111 4.4127 319° Northwest  Level Estimated
Thu 07:34:00 AM 47.6582 4.3523 319° Northwest  Level Estimated
Thu 07:35:00 AM 47.7053 4.2919 319° Northwest  Level Estimated
Thu 07:36:00 AM 47.7523 4.2313 319° Northwest  Level Estimated
Thu 07:37:00 AM 47.7994 4.1706 319° Northwest  Level Estimated
Thu 07:38:00 AM 47.8464 4.1098 319° Northwest  Level Estimated
Thu 07:39:00 AM 47.8933 4.0489 319° Northwest  Level Estimated
Thu 07:40:00 AM 47.9402 3.9879 319° Northwest  Level Estimated
Thu 07:41:00 AM 47.9871 3.9268 319° Northwest  Level Estimated
Thu 07:42:00 AM 48.0340 3.8656 319° Northwest  Level Estimated
Thu 07:43:00 AM 48.0808 3.8042 319° Northwest  Level Estimated
Thu 07:44:00 AM 48.1276 3.7427 319° Northwest  Level Estimated
Thu 07:45:00 AM 48.1744 3.6812 319° Northwest  Level Estimated
Thu 07:46:00 AM 48.2211 3.6195 319° Northwest  Level Estimated
Thu 07:47:00 AM 48.2678 3.5577 319° Northwest  Level Estimated
Thu 07:48:00 AM 48.3144 3.4958 319° Northwest  Level Estimated
Thu 07:49:00 AM 48.3611 3.4338 319° Northwest  Level Estimated
Thu 07:50:00 AM 48.4077 3.3716 318° Northwest  Level Estimated
Thu 07:51:00 AM 48.4542 3.3094 318° Northwest  Level Estimated
Thu 07:52:00 AM 48.5008 3.2470 318° Northwest  Level Estimated
Thu 07:53:00 AM 48.5473 3.1845 318° Northwest  Level Estimated
Thu 07:54:00 AM 48.5937 3.1219 318° Northwest  Level Estimated
Thu 07:55:00 AM 48.6401 3.0592 318° Northwest  Level Estimated
Thu 07:56:00 AM 48.6865 2.9964 318° Northwest  Level Estimated
Thu 07:57:00 AM 48.7329 2.9335 318° Northwest  Level Estimated
Thu 07:58:00 AM 48.7792 2.8704 318° Northwest  Level Estimated
Thu 07:59:00 AM 48.8255 2.8072 318° Northwest  Level Estimated
Thu 08:00:00 AM 48.8718 2.7439 318° Northwest  Level Estimated
Thu 08:01:00 AM 48.9180 2.6806 318° Northwest  Level Estimated
Thu 08:02:00 AM 48.9642 2.6170 318° Northwest  Level Estimated
Thu 08:03:00 AM 49.0103 2.5534 318° Northwest  Level Estimated
Thu 08:04:00 AM 49.0128 2.5500 318° Northwest  Level Estimated
Thu 08:05:00 AM 49.0128 2.5500 180° South  Level Estimated
Thu 08:06:00 AM 49.0128 2.5500 180° South  Level Estimated
Thu 08:07:00 AM 49.0128 2.5500 180° South  Level Estimated
Thu 08:08:00 AM 49.0128 2.5500 180° South  Level Estimated
Thu 08:09:00 AM 49.0128 2.5500 180° South  Level Estimated
Thu 08:10:00 AM 49.0128 2.5500 180° South  Level Estimated
Thu 08:11:00 AM 49.0128 2.5500 180° South  Level Estimated
Thu 08:12:00 AM 49.0128 2.5500 180° South  Level Estimated
Thu 08:13:00 AM 49.0128 2.5500 180° South  Level Estimated
Thu 08:14:00 AM 49.0128 2.5500 180° South  Level Estimated

Login

Don't have an account? Register now (free) for customized features, flight alerts, and more!